sensor_id;sensor_type;location;lat;lon;timestamp;P1;durP1;ratioP1;P2;durP2;ratioP2
27357;SDS011;14831;50.474;7.616;2023-05-24T00:01:24;1.8;;;1.6;;
27357;SDS011;14831;50.474;7.616;2023-05-24T00:06:25;1.8;;;1.6;;
27357;SDS011;14831;50.474;7.616;2023-05-24T00:11:24;1.4;;;1.3;;
27357;SDS011;14831;50.474;7.616;2023-05-24T00:16:24;1.4;;;1.3;;
27357;SDS011;14831;50.474;7.616;2023-05-24T00:21:24;1.4;;;1.3;;
27357;SDS011;14831;50.474;7.616;2023-05-24T00:26:24;1.4;;;1.3;;
27357;SDS011;14831;50.474;7.616;2023-05-24T00:31:24;1.4;;;1.3;;
27357;SDS011;14831;50.474;7.616;2023-05-24T00:36:24;1.4;;;1.3;;
27357;SDS011;14831;50.474;7.616;2023-05-24T00:41:24;1.5;;;1.4;;
27357;SDS011;14831;50.474;7.616;2023-05-24T00:46:26;1.5;;;1.4;;
27357;SDS011;14831;50.474;7.616;2023-05-24T00:51:25;1.5;;;1.4;;
27357;SDS011;14831;50.474;7.616;2023-05-24T00:56:24;1.5;;;1.4;;
27357;SDS011;14831;50.474;7.616;2023-05-24T01:01:24;1.5;;;1.4;;
27357;SDS011;14831;50.474;7.616;2023-05-24T01:06:24;1.5;;;1.4;;
27357;SDS011;14831;50.474;7.616;2023-05-24T01:11:29;1.2;;;1.1;;
27357;SDS011;14831;50.474;7.616;2023-05-24T01:16:29;1.2;;;1.1;;
27357;SDS011;14831;50.474;7.616;2023-05-24T01:21:40;1.2;;;1.1;;
27357;SDS011;14831;50.474;7.616;2023-05-24T01:26:31;1.2;;;1.1;;
27357;SDS011;14831;50.474;7.616;2023-05-24T01:31:25;1.2;;;1.1;;
27357;SDS011;14831;50.474;7.616;2023-05-24T01:36:24;1.2;;;1.1;;
27357;SDS011;14831;50.474;7.616;2023-05-24T01:41:35;1.3;;;1.2;;
27357;SDS011;14831;50.474;7.616;2023-05-24T01:46:33;1.3;;;1.2;;
27357;SDS011;14831;50.474;7.616;2023-05-24T01:51:29;1.3;;;1.2;;
27357;SDS011;14831;50.474;7.616;2023-05-24T01:56:25;1.3;;;1.2;;
27357;SDS011;14831;50.474;7.616;2023-05-24T02:01:25;1.3;;;1.2;;
27357;SDS011;14831;50.474;7.616;2023-05-24T02:06:24;1.3;;;1.2;;
27357;SDS011;14831;50.474;7.616;2023-05-24T02:11:24;1.2;;;1.1;;
27357;SDS011;14831;50.474;7.616;2023-05-24T02:16:24;1.2;;;1.1;;
27357;SDS011;14831;50.474;7.616;2023-05-24T02:21:27;1.2;;;1.1;;
27357;SDS011;14831;50.474;7.616;2023-05-24T02:26:24;1.2;;;1.1;;
27357;SDS011;14831;50.474;7.616;2023-05-24T02:31:24;1.2;;;1.1;;
27357;SDS011;14831;50.474;7.616;2023-05-24T02:36:24;1.2;;;1.1;;
27357;SDS011;14831;50.474;7.616;2023-05-24T02:41:24;1.1;;;1.0;;
27357;SDS011;14831;50.474;7.616;2023-05-24T02:46:24;1.1;;;1.0;;
27357;SDS011;14831;50.474;7.616;2023-05-24T02:51:24;1.1;;;1.0;;
27357;SDS011;14831;50.474;7.616;2023-05-24T02:56:24;1.1;;;1.0;;
27357;SDS011;14831;50.474;7.616;2023-05-24T03:01:24;1.1;;;1.0;;
27357;SDS011;14831;50.474;7.616;2023-05-24T03:06:24;1.1;;;1.0;;
27357;SDS011;14831;50.474;7.616;2023-05-24T03:11:24;1.1;;;1.0;;
27357;SDS011;14831;50.474;7.616;2023-05-24T03:16:24;1.1;;;1.0;;
27357;SDS011;14831;50.474;7.616;2023-05-24T03:21:24;1.1;;;1.0;;
27357;SDS011;14831;50.474;7.616;2023-05-24T03:26:24;1.1;;;1.0;;
27357;SDS011;14831;50.474;7.616;2023-05-24T03:31:24;1.1;;;1.0;;
27357;SDS011;14831;50.474;7.616;2023-05-24T03:36:24;1.1;;;1.0;;
27357;SDS011;14831;50.474;7.616;2023-05-24T03:41:24;0.8;;;0.8;;
27357;SDS011;14831;50.474;7.616;2023-05-24T03:46:24;0.8;;;0.8;;
27357;SDS011;14831;50.474;7.616;2023-05-24T03:51:24;0.8;;;0.8;;
27357;SDS011;14831;50.474;7.616;2023-05-24T03:56:25;0.8;;;0.8;;
27357;SDS011;14831;50.474;7.616;2023-05-24T04:01:24;0.8;;;0.8;;
27357;SDS011;14831;50.474;7.616;2023-05-24T04:06:24;0.8;;;0.8;;
27357;SDS011;14831;50.474;7.616;2023-05-24T04:11:24;1.4;;;0.9;;
27357;SDS011;14831;50.474;7.616;2023-05-24T04:16:25;1.4;;;0.9;;
27357;SDS011;14831;50.474;7.616;2023-05-24T04:21:24;1.4;;;0.9;;
27357;SDS011;14831;50.474;7.616;2023-05-24T04:26:24;1.4;;;0.9;;
27357;SDS011;14831;50.474;7.616;2023-05-24T04:31:24;1.4;;;0.9;;
27357;SDS011;14831;50.474;7.616;2023-05-24T04:36:24;1.4;;;0.9;;
27357;SDS011;14831;50.474;7.616;2023-05-24T04:41:24;0.9;;;0.8;;
27357;SDS011;14831;50.474;7.616;2023-05-24T04:46:25;0.9;;;0.8;;
27357;SDS011;14831;50.474;7.616;2023-05-24T04:51:24;0.9;;;0.8;;
27357;SDS011;14831;50.474;7.616;2023-05-24T04:56:24;0.9;;;0.8;;
27357;SDS011;14831;50.474;7.616;2023-05-24T05:01:24;0.9;;;0.8;;
27357;SDS011;14831;50.474;7.616;2023-05-24T05:06:25;0.9;;;0.8;;
27357;SDS011;14831;50.474;7.616;2023-05-24T05:11:24;1.7;;;1.0;;
27357;SDS011;14831;50.474;7.616;2023-05-24T05:16:24;1.7;;;1.0;;
27357;SDS011;14831;50.474;7.616;2023-05-24T05:21:24;1.7;;;1.0;;
27357;SDS011;14831;50.474;7.616;2023-05-24T05:26:24;1.7;;;1.0;;
27357;SDS011;14831;50.474;7.616;2023-05-24T05:31:24;1.7;;;1.0;;
27357;SDS011;14831;50.474;7.616;2023-05-24T05:36:24;1.7;;;1.0;;
27357;SDS011;14831;50.474;7.616;2023-05-24T05:41:24;1.9;;;1.1;;
27357;SDS011;14831;50.474;7.616;2023-05-24T05:46:24;1.9;;;1.1;;
27357;SDS011;14831;50.474;7.616;2023-05-24T05:51:24;1.9;;;1.1;;
27357;SDS011;14831;50.474;7.616;2023-05-24T05:56:24;1.9;;;1.1;;
27357;SDS011;14831;50.474;7.616;2023-05-24T06:01:24;1.9;;;1.1;;
27357;SDS011;14831;50.474;7.616;2023-05-24T06:06:24;1.9;;;1.1;;
27357;SDS011;14831;50.474;7.616;2023-05-24T06:11:24;2.7;;;1.1;;
27357;SDS011;14831;50.474;7.616;2023-05-24T06:16:25;2.7;;;1.1;;
27357;SDS011;14831;50.474;7.616;2023-05-24T06:21:24;2.7;;;1.1;;
27357;SDS011;14831;50.474;7.616;2023-05-24T06:26:24;2.7;;;1.1;;
27357;SDS011;14831;50.474;7.616;2023-05-24T06:31:24;2.7;;;1.1;;
27357;SDS011;14831;50.474;7.616;2023-05-24T06:36:24;2.7;;;1.1;;
27357;SDS011;14831;50.474;7.616;2023-05-24T06:41:24;4.4;;;1.4;;
27357;SDS011;14831;50.474;7.616;2023-05-24T06:46:24;4.4;;;1.4;;
27357;SDS011;14831;50.474;7.616;2023-05-24T06:51:24;4.4;;;1.4;;
27357;SDS011;14831;50.474;7.616;2023-05-24T06:56:24;4.4;;;1.4;;
27357;SDS011;14831;50.474;7.616;2023-05-24T07:01:24;4.4;;;1.4;;
27357;SDS011;14831;50.474;7.616;2023-05-24T07:06:24;4.4;;;1.4;;
27357;SDS011;14831;50.474;7.616;2023-05-24T07:11:24;9.2;;;1.8;;
27357;SDS011;14831;50.474;7.616;2023-05-24T07:16:24;9.2;;;1.8;;
27357;SDS011;14831;50.474;7.616;2023-05-24T07:21:24;9.2;;;1.8;;
27357;SDS011;14831;50.474;7.616;2023-05-24T07:26:24;9.2;;;1.8;;
27357;SDS011;14831;50.474;7.616;2023-05-24T07:31:24;9.2;;;1.8;;
27357;SDS011;14831;50.474;7.616;2023-05-24T07:36:24;9.2;;;1.8;;
27357;SDS011;14831;50.474;7.616;2023-05-24T07:41:25;10.3;;;2.8;;
27357;SDS011;14831;50.474;7.616;2023-05-24T07:46:24;10.3;;;2.8;;
27357;SDS011;14831;50.474;7.616;2023-05-24T07:51:24;10.3;;;2.8;;
27357;SDS011;14831;50.474;7.616;2023-05-24T07:56:24;10.3;;;2.8;;
27357;SDS011;14831;50.474;7.616;2023-05-24T08:01:24;10.3;;;2.8;;
27357;SDS011;14831;50.474;7.616;2023-05-24T08:06:24;10.3;;;2.8;;
27357;SDS011;14831;50.474;7.616;2023-05-24T08:11:24;9.4;;;3.3;;
27357;SDS011;14831;50.474;7.616;2023-05-24T08:16:24;9.4;;;3.3;;
27357;SDS011;14831;50.474;7.616;2023-05-24T08:21:24;9.4;;;3.3;;
27357;SDS011;14831;50.474;7.616;2023-05-24T08:26:24;9.4;;;3.3;;
27357;SDS011;14831;50.474;7.616;2023-05-24T08:31:24;9.4;;;3.3;;
27357;SDS011;14831;50.474;7.616;2023-05-24T08:36:24;9.4;;;3.3;;
27357;SDS011;14831;50.474;7.616;2023-05-24T08:41:24;9.6;;;4.4;;
27357;SDS011;14831;50.474;7.616;2023-05-24T08:46:24;9.6;;;4.4;;
27357;SDS011;14831;50.474;7.616;2023-05-24T08:51:24;9.6;;;4.4;;
27357;SDS011;14831;50.474;7.616;2023-05-24T08:56:25;9.6;;;4.4;;
27357;SDS011;14831;50.474;7.616;2023-05-24T09:01:25;9.6;;;4.4;;
27357;SDS011;14831;50.474;7.616;2023-05-24T09:06:25;9.6;;;4.4;;
27357;SDS011;14831;50.474;7.616;2023-05-24T09:11:26;9.2;;;4.0;;
27357;SDS011;14831;50.474;7.616;2023-05-24T09:16:24;9.2;;;4.0;;
27357;SDS011;14831;50.474;7.616;2023-05-24T09:21:24;9.2;;;4.0;;
27357;SDS011;14831;50.474;7.616;2023-05-24T09:26:26;9.2;;;4.0;;
27357;SDS011;14831;50.474;7.616;2023-05-24T09:31:31;9.2;;;4.0;;
27357;SDS011;14831;50.474;7.616;2023-05-24T09:36:25;9.2;;;4.0;;
27357;SDS011;14831;50.474;7.616;2023-05-24T09:41:24;8.4;;;3.8;;
27357;SDS011;14831;50.474;7.616;2023-05-24T09:46:24;8.4;;;3.8;;
27357;SDS011;14831;50.474;7.616;2023-05-24T09:51:25;8.4;;;3.8;;
27357;SDS011;14831;50.474;7.616;2023-05-24T09:56:25;8.4;;;3.8;;
27357;SDS011;14831;50.474;7.616;2023-05-24T10:01:24;8.4;;;3.8;;
27357;SDS011;14831;50.474;7.616;2023-05-24T10:06:24;8.4;;;3.8;;
27357;SDS011;14831;50.474;7.616;2023-05-24T10:11:24;7.2;;;3.0;;
27357;SDS011;14831;50.474;7.616;2023-05-24T10:16:24;7.2;;;3.0;;
27357;SDS011;14831;50.474;7.616;2023-05-24T10:21:28;7.2;;;3.0;;
27357;SDS011;14831;50.474;7.616;2023-05-24T10:26:24;7.2;;;3.0;;
27357;SDS011;14831;50.474;7.616;2023-05-24T10:31:29;7.2;;;3.0;;
27357;SDS011;14831;50.474;7.616;2023-05-24T10:36:25;7.2;;;3.0;;
27357;SDS011;14831;50.474;7.616;2023-05-24T10:41:25;5.7;;;3.0;;
27357;SDS011;14831;50.474;7.616;2023-05-24T10:46:24;5.7;;;3.0;;
27357;SDS011;14831;50.474;7.616;2023-05-24T10:51:33;5.7;;;3.0;;
27357;SDS011;14831;50.474;7.616;2023-05-24T10:56:26;5.7;;;3.0;;
27357;SDS011;14831;50.474;7.616;2023-05-24T11:01:25;5.7;;;3.0;;
27357;SDS011;14831;50.474;7.616;2023-05-24T11:06:44;5.7;;;3.0;;
27357;SDS011;14831;50.474;7.616;2023-05-24T11:11:25;6.6;;;3.3;;
27357;SDS011;14831;50.474;7.616;2023-05-24T11:16:32;6.6;;;3.3;;
27357;SDS011;14831;50.474;7.616;2023-05-24T11:21:26;6.6;;;3.3;;
27357;SDS011;14831;50.474;7.616;2023-05-24T11:26:24;6.6;;;3.3;;
27357;SDS011;14831;50.474;7.616;2023-05-24T11:31:26;6.6;;;3.3;;
27357;SDS011;14831;50.474;7.616;2023-05-24T11:36:24;6.6;;;3.3;;
27357;SDS011;14831;50.474;7.616;2023-05-24T11:41:24;5.7;;;2.5;;
27357;SDS011;14831;50.474;7.616;2023-05-24T11:46:25;5.7;;;2.5;;
27357;SDS011;14831;50.474;7.616;2023-05-24T11:51:25;5.7;;;2.5;;
27357;SDS011;14831;50.474;7.616;2023-05-24T11:56:25;5.7;;;2.5;;
27357;SDS011;14831;50.474;7.616;2023-05-24T12:01:25;5.7;;;2.5;;
27357;SDS011;14831;50.474;7.616;2023-05-24T12:06:33;5.7;;;2.5;;
27357;SDS011;14831;50.474;7.616;2023-05-24T12:11:24;4.4;;;2.4;;
27357;SDS011;14831;50.474;7.616;2023-05-24T12:16:25;4.4;;;2.4;;
27357;SDS011;14831;50.474;7.616;2023-05-24T12:21:24;4.4;;;2.4;;
27357;SDS011;14831;50.474;7.616;2023-05-24T12:26:25;4.4;;;2.4;;
27357;SDS011;14831;50.474;7.616;2023-05-24T12:31:25;4.4;;;2.4;;
27357;SDS011;14831;50.474;7.616;2023-05-24T12:36:27;4.4;;;2.4;;
27357;SDS011;14831;50.474;7.616;2023-05-24T12:41:24;7.0;;;2.7;;
27357;SDS011;14831;50.474;7.616;2023-05-24T12:46:24;7.0;;;2.7;;
27357;SDS011;14831;50.474;7.616;2023-05-24T12:51:24;7.0;;;2.7;;
27357;SDS011;14831;50.474;7.616;2023-05-24T12:56:24;7.0;;;2.7;;
27357;SDS011;14831;50.474;7.616;2023-05-24T13:01:24;7.0;;;2.7;;
27357;SDS011;14831;50.474;7.616;2023-05-24T13:06:24;7.0;;;2.7;;
27357;SDS011;14831;50.474;7.616;2023-05-24T13:11:24;6.3;;;2.8;;
27357;SDS011;14831;50.474;7.616;2023-05-24T13:16:24;6.3;;;2.8;;
27357;SDS011;14831;50.474;7.616;2023-05-24T13:21:24;6.3;;;2.8;;
27357;SDS011;14831;50.474;7.616;2023-05-24T13:26:24;6.3;;;2.8;;
27357;SDS011;14831;50.474;7.616;2023-05-24T13:31:24;6.3;;;2.8;;
27357;SDS011;14831;50.474;7.616;2023-05-24T13:36:24;6.3;;;2.8;;
27357;SDS011;14831;50.474;7.616;2023-05-24T13:41:24;5.0;;;2.4;;
27357;SDS011;14831;50.474;7.616;2023-05-24T13:46:24;5.0;;;2.4;;
27357;SDS011;14831;50.474;7.616;2023-05-24T13:51:24;5.0;;;2.4;;
27357;SDS011;14831;50.474;7.616;2023-05-24T13:56:24;5.0;;;2.4;;
27357;SDS011;14831;50.474;7.616;2023-05-24T14:01:24;5.0;;;2.4;;
27357;SDS011;14831;50.474;7.616;2023-05-24T14:06:24;5.0;;;2.4;;
27357;SDS011;14831;50.474;7.616;2023-05-24T14:11:24;9.2;;;3.6;;
27357;SDS011;14831;50.474;7.616;2023-05-24T14:16:24;9.2;;;3.6;;
27357;SDS011;14831;50.474;7.616;2023-05-24T14:21:24;9.2;;;3.6;;
27357;SDS011;14831;50.474;7.616;2023-05-24T14:26:24;9.2;;;3.6;;
27357;SDS011;14831;50.474;7.616;2023-05-24T14:31:24;9.2;;;3.6;;
27357;SDS011;14831;50.474;7.616;2023-05-24T14:36:24;9.2;;;3.6;;
27357;SDS011;14831;50.474;7.616;2023-05-24T14:41:24;7.9;;;3.6;;
27357;SDS011;14831;50.474;7.616;2023-05-24T14:46:24;7.9;;;3.6;;
27357;SDS011;14831;50.474;7.616;2023-05-24T14:51:24;7.9;;;3.6;;
27357;SDS011;14831;50.474;7.616;2023-05-24T14:56:24;7.9;;;3.6;;
27357;SDS011;14831;50.474;7.616;2023-05-24T15:01:24;7.9;;;3.6;;
27357;SDS011;14831;50.474;7.616;2023-05-24T15:06:24;7.9;;;3.6;;
27357;SDS011;14831;50.474;7.616;2023-05-24T15:11:24;4.4;;;2.7;;
27357;SDS011;14831;50.474;7.616;2023-05-24T15:16:24;4.4;;;2.7;;
27357;SDS011;14831;50.474;7.616;2023-05-24T15:21:24;4.4;;;2.7;;
27357;SDS011;14831;50.474;7.616;2023-05-24T15:26:24;4.4;;;2.7;;
27357;SDS011;14831;50.474;7.616;2023-05-24T15:31:24;4.4;;;2.7;;
27357;SDS011;14831;50.474;7.616;2023-05-24T15:36:24;4.4;;;2.7;;
27357;SDS011;14831;50.474;7.616;2023-05-24T15:41:24;4.7;;;2.4;;
27357;SDS011;14831;50.474;7.616;2023-05-24T15:46:24;4.7;;;2.4;;
27357;SDS011;14831;50.474;7.616;2023-05-24T15:51:24;4.7;;;2.4;;
27357;SDS011;14831;50.474;7.616;2023-05-24T15:56:24;4.7;;;2.4;;
27357;SDS011;14831;50.474;7.616;2023-05-24T16:01:24;4.7;;;2.4;;
27357;SDS011;14831;50.474;7.616;2023-05-24T16:06:24;4.7;;;2.4;;
27357;SDS011;14831;50.474;7.616;2023-05-24T16:11:24;2.7;;;2.1;;
27357;SDS011;14831;50.474;7.616;2023-05-24T16:16:24;2.7;;;2.1;;
27357;SDS011;14831;50.474;7.616;2023-05-24T16:21:24;2.7;;;2.1;;
27357;SDS011;14831;50.474;7.616;2023-05-24T16:26:24;2.7;;;2.1;;
27357;SDS011;14831;50.474;7.616;2023-05-24T16:31:25;2.7;;;2.1;;
27357;SDS011;14831;50.474;7.616;2023-05-24T16:36:24;2.7;;;2.1;;
27357;SDS011;14831;50.474;7.616;2023-05-24T16:41:24;3.9;;;2.4;;
27357;SDS011;14831;50.474;7.616;2023-05-24T16:46:24;3.9;;;2.4;;
27357;SDS011;14831;50.474;7.616;2023-05-24T16:51:24;3.9;;;2.4;;
27357;SDS011;14831;50.474;7.616;2023-05-24T16:56:24;3.9;;;2.4;;
27357;SDS011;14831;50.474;7.616;2023-05-24T17:01:24;3.9;;;2.4;;
27357;SDS011;14831;50.474;7.616;2023-05-24T17:06:24;3.9;;;2.4;;
27357;SDS011;14831;50.474;7.616;2023-05-24T17:11:24;2.7;;;1.7;;
27357;SDS011;14831;50.474;7.616;2023-05-24T17:16:24;2.7;;;1.7;;
27357;SDS011;14831;50.474;7.616;2023-05-24T17:21:24;2.7;;;1.7;;
27357;SDS011;14831;50.474;7.616;2023-05-24T17:26:24;2.7;;;1.7;;
27357;SDS011;14831;50.474;7.616;2023-05-24T17:31:24;2.7;;;1.7;;
27357;SDS011;14831;50.474;7.616;2023-05-24T17:36:24;2.7;;;1.7;;
27357;SDS011;14831;50.474;7.616;2023-05-24T17:41:24;2.5;;;1.7;;
27357;SDS011;14831;50.474;7.616;2023-05-24T17:46:24;2.5;;;1.7;;
27357;SDS011;14831;50.474;7.616;2023-05-24T17:51:24;2.5;;;1.7;;
27357;SDS011;14831;50.474;7.616;2023-05-24T17:56:24;2.5;;;1.7;;
27357;SDS011;14831;50.474;7.616;2023-05-24T18:01:24;2.5;;;1.7;;
27357;SDS011;14831;50.474;7.616;2023-05-24T18:06:24;2.5;;;1.7;;
27357;SDS011;14831;50.474;7.616;2023-05-24T18:11:24;3.9;;;2.1;;
27357;SDS011;14831;50.474;7.616;2023-05-24T18:16:25;3.9;;;2.1;;
27357;SDS011;14831;50.474;7.616;2023-05-24T18:21:24;3.9;;;2.1;;
27357;SDS011;14831;50.474;7.616;2023-05-24T18:26:24;3.9;;;2.1;;
27357;SDS011;14831;50.474;7.616;2023-05-24T18:31:24;3.9;;;2.1;;
27357;SDS011;14831;50.474;7.616;2023-05-24T18:36:24;3.9;;;2.1;;
27357;SDS011;14831;50.474;7.616;2023-05-24T18:41:24;2.3;;;1.7;;
27357;SDS011;14831;50.474;7.616;2023-05-24T18:46:24;2.3;;;1.7;;
27357;SDS011;14831;50.474;7.616;2023-05-24T18:51:24;2.3;;;1.7;;
27357;SDS011;14831;50.474;7.616;2023-05-24T18:56:24;2.3;;;1.7;;
27357;SDS011;14831;50.474;7.616;2023-05-24T19:01:24;2.3;;;1.7;;
27357;SDS011;14831;50.474;7.616;2023-05-24T19:06:24;2.3;;;1.7;;
27357;SDS011;14831;50.474;7.616;2023-05-24T19:11:24;1.8;;;1.7;;
27357;SDS011;14831;50.474;7.616;2023-05-24T19:16:24;1.8;;;1.7;;
27357;SDS011;14831;50.474;7.616;2023-05-24T19:21:24;1.8;;;1.7;;
27357;SDS011;14831;50.474;7.616;2023-05-24T19:26:24;1.8;;;1.7;;
27357;SDS011;14831;50.474;7.616;2023-05-24T19:31:25;1.8;;;1.7;;
27357;SDS011;14831;50.474;7.616;2023-05-24T19:36:24;1.8;;;1.7;;
27357;SDS011;14831;50.474;7.616;2023-05-24T19:41:24;2.0;;;1.7;;
27357;SDS011;14831;50.474;7.616;2023-05-24T19:46:25;2.0;;;1.7;;
27357;SDS011;14831;50.474;7.616;2023-05-24T19:51:24;2.0;;;1.7;;
27357;SDS011;14831;50.474;7.616;2023-05-24T19:56:24;2.0;;;1.7;;
27357;SDS011;14831;50.474;7.616;2023-05-24T20:01:25;2.0;;;1.7;;
27357;SDS011;14831;50.474;7.616;2023-05-24T20:06:24;2.0;;;1.7;;
27357;SDS011;14831;50.474;7.616;2023-05-24T20:11:24;1.4;;;1.3;;
27357;SDS011;14831;50.474;7.616;2023-05-24T20:16:25;1.4;;;1.3;;
27357;SDS011;14831;50.474;7.616;2023-05-24T20:21:24;1.4;;;1.3;;
27357;SDS011;14831;50.474;7.616;2023-05-24T20:26:24;1.4;;;1.3;;
27357;SDS011;14831;50.474;7.616;2023-05-24T20:31:24;1.4;;;1.3;;
27357;SDS011;14831;50.474;7.616;2023-05-24T20:36:24;1.4;;;1.3;;
27357;SDS011;14831;50.474;7.616;2023-05-24T20:41:24;2.0;;;1.6;;
27357;SDS011;14831;50.474;7.616;2023-05-24T20:46:24;2.0;;;1.6;;
27357;SDS011;14831;50.474;7.616;2023-05-24T20:51:24;2.0;;;1.6;;
27357;SDS011;14831;50.474;7.616;2023-05-24T20:56:24;2.0;;;1.6;;
27357;SDS011;14831;50.474;7.616;2023-05-24T21:01:24;2.0;;;1.6;;
27357;SDS011;14831;50.474;7.616;2023-05-24T21:06:24;2.0;;;1.6;;
27357;SDS011;14831;50.474;7.616;2023-05-24T21:11:24;2.1;;;1.9;;
27357;SDS011;14831;50.474;7.616;2023-05-24T21:16:24;2.1;;;1.9;;
27357;SDS011;14831;50.474;7.616;2023-05-24T21:21:24;2.1;;;1.9;;
27357;SDS011;14831;50.474;7.616;2023-05-24T21:26:24;2.1;;;1.9;;
27357;SDS011;14831;50.474;7.616;2023-05-24T21:31:24;2.1;;;1.9;;
27357;SDS011;14831;50.474;7.616;2023-05-24T21:36:24;2.1;;;1.9;;
27357;SDS011;14831;50.474;7.616;2023-05-24T21:41:24;2.3;;;1.7;;
27357;SDS011;14831;50.474;7.616;2023-05-24T21:46:24;2.3;;;1.7;;
27357;SDS011;14831;50.474;7.616;2023-05-24T21:51:24;2.3;;;1.7;;
27357;SDS011;14831;50.474;7.616;2023-05-24T21:56:24;2.3;;;1.7;;
27357;SDS011;14831;50.474;7.616;2023-05-24T22:01:24;2.3;;;1.7;;
27357;SDS011;14831;50.474;7.616;2023-05-24T22:06:24;2.3;;;1.7;;
27357;SDS011;14831;50.474;7.616;2023-05-24T22:11:24;3.4;;;1.8;;
27357;SDS011;14831;50.474;7.616;2023-05-24T22:16:24;3.4;;;1.8;;
27357;SDS011;14831;50.474;7.616;2023-05-24T22:21:24;3.4;;;1.8;;
27357;SDS011;14831;50.474;7.616;2023-05-24T22:26:25;3.4;;;1.8;;
27357;SDS011;14831;50.474;7.616;2023-05-24T22:31:25;3.4;;;1.8;;
27357;SDS011;14831;50.474;7.616;2023-05-24T22:36:24;3.4;;;1.8;;
27357;SDS011;14831;50.474;7.616;2023-05-24T22:41:25;3.0;;;1.8;;
27357;SDS011;14831;50.474;7.616;2023-05-24T22:46:24;3.0;;;1.8;;
27357;SDS011;14831;50.474;7.616;2023-05-24T22:51:24;3.0;;;1.8;;
27357;SDS011;14831;50.474;7.616;2023-05-24T22:56:24;3.0;;;1.8;;
27357;SDS011;14831;50.474;7.616;2023-05-24T23:01:24;3.0;;;1.8;;
27357;SDS011;14831;50.474;7.616;2023-05-24T23:06:24;3.0;;;1.8;;
27357;SDS011;14831;50.474;7.616;2023-05-24T23:11:24;2.9;;;2.1;;
27357;SDS011;14831;50.474;7.616;2023-05-24T23:16:24;2.9;;;2.1;;
27357;SDS011;14831;50.474;7.616;2023-05-24T23:21:25;2.9;;;2.1;;
27357;SDS011;14831;50.474;7.616;2023-05-24T23:26:24;2.9;;;2.1;;
27357;SDS011;14831;50.474;7.616;2023-05-24T23:31:24;2.9;;;2.1;;
27357;SDS011;14831;50.474;7.616;2023-05-24T23:36:24;2.9;;;2.1;;
27357;SDS011;14831;50.474;7.616;2023-05-24T23:41:24;3.5;;;1.9;;
27357;SDS011;14831;50.474;7.616;2023-05-24T23:46:24;3.5;;;1.9;;
27357;SDS011;14831;50.474;7.616;2023-05-24T23:51:24;3.5;;;1.9;;
27357;SDS011;14831;50.474;7.616;2023-05-24T23:56:24;3.5;;;1.9;;
